createdAt,value
2019-03-01T00:01:00.318Z,20.70
2019-03-01T00:03:28.803Z,20.70
2019-03-01T00:06:19.795Z,20.70
2019-03-01T00:09:04.014Z,20.70
2019-03-01T00:11:44.345Z,20.60
2019-03-01T00:14:42.727Z,20.70
2019-03-01T00:17:31.664Z,20.60
2019-03-01T00:20:19.638Z,20.60
2019-03-01T00:23:06.083Z,20.60
2019-03-01T00:25:46.423Z,20.60
2019-03-01T00:28:20.856Z,20.60
2019-03-01T00:31:11.877Z,20.60
2019-03-01T00:34:04.301Z,20.60
2019-03-01T00:36:55.246Z,20.60
2019-03-01T00:39:44.885Z,20.60
2019-03-01T00:42:31.567Z,20.60
2019-03-01T00:44:59.840Z,20.60
2019-03-01T00:47:28.173Z,20.60
2019-03-01T00:49:56.449Z,20.60
2019-03-01T00:52:24.713Z,20.60
2019-03-01T00:54:52.987Z,20.60
2019-03-01T00:57:21.238Z,20.50
2019-03-01T00:59:49.515Z,20.60
2019-03-01T01:02:17.782Z,20.60
2019-03-01T01:04:46.302Z,20.50
2019-03-01T01:07:14.545Z,20.50
2019-03-01T01:09:42.792Z,20.50
2019-03-01T01:12:11.053Z,20.50
2019-03-01T01:14:39.544Z,20.40
2019-03-01T01:17:08.070Z,20.40
2019-03-01T01:19:36.564Z,20.40
2019-03-01T01:22:05.069Z,20.40
2019-03-01T01:24:33.381Z,20.40
2019-03-01T01:27:01.626Z,20.40
2019-03-01T01:29:30.135Z,20.40
2019-03-01T01:31:58.437Z,20.40
2019-03-01T01:34:26.710Z,20.40
2019-03-01T01:36:55.028Z,20.40
2019-03-01T01:39:23.318Z,20.30
2019-03-01T01:41:51.574Z,20.40
2019-03-01T01:44:19.846Z,20.30
2019-03-01T01:46:48.098Z,20.30
2019-03-01T01:49:16.627Z,20.40
2019-03-01T01:51:44.882Z,20.30
2019-03-01T01:54:13.154Z,20.30
2019-03-01T01:56:41.420Z,20.30
2019-03-01T01:59:09.665Z,20.30
2019-03-01T02:01:38.166Z,20.30
2019-03-01T02:04:06.430Z,20.30
2019-03-01T02:06:34.697Z,20.30
2019-03-01T02:09:03.002Z,20.30
2019-03-01T02:11:31.284Z,20.30
2019-03-01T02:13:59.565Z,20.30
2019-03-01T02:16:27.833Z,20.30
2019-03-01T02:18:57.981Z,20.30
2019-03-01T02:21:26.350Z,20.30
2019-03-01T02:23:54.590Z,20.30
2019-03-01T02:26:22.838Z,20.30
2019-03-01T02:28:51.229Z,20.30
2019-03-01T02:31:19.481Z,20.20
2019-03-01T02:33:47.754Z,20.30
2019-03-01T02:36:15.989Z,20.20
2019-03-01T02:38:44.250Z,20.20
2019-03-01T02:41:12.802Z,20.20
2019-03-01T02:43:41.291Z,20.20
2019-03-01T02:46:09.549Z,20.20
2019-03-01T02:48:38.049Z,20.20
2019-03-01T02:51:06.306Z,20.20
2019-03-01T02:53:34.589Z,20.20
2019-03-01T02:56:02.915Z,20.10
2019-03-01T02:58:31.410Z,20.10
2019-03-01T03:00:59.652Z,20.10
2019-03-01T03:03:27.927Z,20.10
2019-03-01T03:06:12.630Z,20.10
2019-03-01T03:08:41.195Z,20.10
2019-03-01T03:11:09.531Z,20.00
2019-03-01T03:13:37.784Z,20.10
2019-03-01T03:16:06.251Z,20.10
2019-03-01T03:18:34.522Z,20.00
2019-03-01T03:21:02.786Z,20.10
2019-03-01T03:23:31.106Z,20.10
2019-03-01T03:25:59.366Z,20.00
2019-03-01T03:28:27.690Z,20.00
2019-03-01T03:30:55.992Z,20.00
2019-03-01T03:33:24.286Z,20.00
2019-03-01T03:35:52.552Z,20.00
2019-03-01T03:38:20.803Z,20.00
2019-03-01T03:40:49.074Z,20.00
2019-03-01T03:43:17.391Z,20.00
2019-03-01T03:45:45.677Z,20.10
2019-03-01T03:48:14.637Z,20.00
2019-03-01T03:50:43.135Z,20.00
2019-03-01T03:53:11.419Z,20.00
2019-03-01T03:55:39.762Z,20.00
2019-03-01T03:58:08.089Z,20.00
2019-03-01T04:00:36.374Z,20.00
2019-03-01T04:03:04.650Z,20.00
2019-03-01T04:05:33.150Z,20.00
2019-03-01T04:08:01.494Z,20.00
2019-03-01T04:10:29.738Z,20.00
2019-03-01T04:12:58.332Z,20.00
2019-03-01T04:15:26.648Z,20.00
2019-03-01T04:17:54.905Z,20.00
2019-03-01T04:20:23.167Z,20.00
2019-03-01T04:22:51.415Z,20.00
2019-03-01T04:25:19.681Z,19.90
2019-03-01T04:27:47.936Z,19.90
2019-03-01T04:30:18.261Z,20.00
2019-03-01T04:32:46.749Z,19.90
2019-03-01T04:35:15.004Z,19.90
2019-03-01T04:37:43.266Z,19.90
2019-03-01T04:40:13.151Z,19.90
2019-03-01T04:42:41.456Z,19.90
2019-03-01T04:45:17.001Z,19.90
2019-03-01T04:47:45.288Z,19.90
2019-03-01T04:50:13.634Z,19.90
2019-03-01T04:52:41.910Z,19.80
2019-03-01T04:55:15.926Z,19.90
2019-03-01T04:57:44.203Z,19.90
2019-03-01T05:00:23.662Z,19.80
2019-03-01T05:02:51.936Z,19.80
2019-03-01T05:05:20.179Z,19.90
2019-03-01T05:07:48.622Z,19.90
2019-03-01T05:10:17.527Z,19.80
2019-03-01T05:12:45.773Z,19.90
2019-03-01T05:15:16.226Z,19.80
2019-03-01T05:17:44.545Z,19.80
2019-03-01T05:20:12.832Z,19.90
2019-03-01T05:22:41.158Z,19.90
2019-03-01T05:25:10.287Z,19.80
2019-03-01T05:27:38.850Z,19.80
2019-03-01T05:30:12.907Z,19.90
2019-03-01T05:32:41.161Z,19.80
2019-03-01T05:35:09.737Z,19.80
2019-03-01T05:37:37.984Z,19.80
2019-03-01T05:40:09.114Z,19.80
2019-03-01T05:42:37.649Z,19.80
2019-03-01T05:45:09.296Z,19.80
2019-03-01T05:47:37.597Z,19.80
2019-03-01T05:50:09.366Z,19.80
2019-03-01T05:52:37.605Z,19.80
2019-03-01T05:55:08.245Z,19.80
2019-03-01T05:57:36.494Z,19.80
2019-03-01T06:00:08.713Z,19.80
2019-03-01T06:02:49.056Z,19.80
2019-03-01T06:05:17.305Z,19.80
2019-03-01T06:07:54.621Z,19.80
2019-03-01T06:10:28.730Z,19.80
2019-03-01T06:13:15.041Z,19.70
2019-03-01T06:16:15.286Z,19.70
2019-03-01T06:18:55.765Z,19.70
2019-03-01T06:22:00.292Z,19.70
2019-03-01T06:25:03.307Z,19.70
2019-03-01T06:27:51.321Z,19.70
2019-03-01T06:30:31.894Z,19.70
2019-03-01T06:33:18.073Z,19.70
2019-03-01T06:35:49.602Z,19.60
2019-03-01T06:38:22.781Z,19.60
2019-03-01T06:41:16.638Z,19.60
2019-03-01T06:44:11.781Z,19.70
2019-03-01T06:46:49.061Z,19.70
2019-03-01T06:49:22.154Z,19.70
2019-03-01T06:51:50.409Z,19.60
2019-03-01T06:54:18.666Z,19.70
2019-03-01T06:56:46.940Z,19.70
2019-03-01T06:59:15.193Z,19.70
2019-03-01T07:01:43.834Z,19.70
2019-03-01T07:04:13.945Z,19.70
2019-03-01T07:06:43.210Z,19.70
2019-03-01T07:09:11.472Z,19.70
2019-03-01T07:11:39.733Z,19.70
2019-03-01T07:14:08.001Z,19.70
2019-03-01T07:16:36.773Z,19.70
2019-03-01T07:19:08.056Z,19.70
2019-03-01T07:21:36.578Z,19.70
2019-03-01T07:24:04.913Z,19.70
2019-03-01T07:26:33.158Z,19.70
2019-03-01T07:29:01.670Z,19.70
2019-03-01T07:31:30.190Z,19.70
2019-03-01T07:33:58.493Z,19.70
2019-03-01T07:36:26.784Z,19.60
2019-03-01T07:38:55.321Z,19.60
2019-03-01T07:41:23.577Z,19.70
2019-03-01T07:43:52.108Z,19.60
2019-03-01T07:46:20.452Z,19.60
2019-03-01T07:48:48.694Z,19.60
2019-03-01T07:51:16.960Z,19.60
2019-03-01T07:53:45.249Z,19.60
2019-03-01T07:56:13.595Z,19.60
2019-03-01T07:58:42.135Z,19.60
2019-03-01T08:01:10.690Z,19.60
2019-03-01T08:03:38.969Z,19.60
2019-03-01T08:06:07.320Z,19.60
2019-03-01T08:08:38.815Z,19.50
2019-03-01T08:11:05.665Z,19.60
2019-03-01T08:13:33.937Z,19.60
2019-03-01T08:16:02.173Z,19.50
2019-03-01T08:18:30.458Z,19.60
2019-03-01T08:20:58.705Z,19.50
2019-03-01T08:23:27.220Z,19.60
2019-03-01T08:25:58.450Z,19.60
2019-03-01T08:28:25.457Z,19.60
2019-03-01T08:30:53.737Z,19.60
2019-03-01T08:33:21.986Z,19.60
2019-03-01T08:35:50.284Z,19.60
2019-03-01T08:38:18.557Z,19.60
2019-03-01T08:40:49.943Z,19.50
2019-03-01T08:43:16.784Z,19.60
2019-03-01T08:45:45.285Z,19.50
2019-03-01T08:48:13.799Z,19.60
2019-03-01T08:50:42.029Z,19.50
2019-03-01T08:53:11.510Z,19.50
2019-03-01T08:55:40.328Z,19.50
2019-03-01T08:58:09.022Z,19.50
2019-03-01T09:00:42.741Z,19.50
2019-03-01T09:03:22.129Z,19.60
2019-03-01T09:05:46.885Z,19.50
2019-03-01T09:08:15.178Z,19.60
2019-03-01T09:10:43.506Z,19.50
2019-03-01T09:13:11.878Z,19.50
2019-03-01T09:15:40.141Z,19.50
2019-03-01T09:18:11.592Z,19.50
2019-03-01T09:20:38.736Z,19.50
2019-03-01T09:23:20.684Z,19.50
2019-03-01T09:25:36.953Z,19.50
2019-03-01T09:28:05.444Z,19.50
2019-03-01T09:30:33.722Z,19.50
2019-03-01T09:33:01.960Z,19.50
2019-03-01T09:35:31.902Z,19.50
2019-03-01T09:38:00.220Z,19.50
2019-03-01T09:40:29.673Z,19.50
2019-03-01T09:42:58.335Z,19.50
2019-03-01T09:45:35.617Z,19.50
2019-03-01T09:47:56.630Z,19.50
2019-03-01T09:50:24.864Z,19.50
2019-03-01T09:52:55.504Z,19.50
2019-03-01T09:55:23.122Z,19.50
2019-03-01T09:57:51.445Z,19.50
2019-03-01T10:00:25.845Z,19.50
2019-03-01T10:02:54.111Z,19.50
2019-03-01T10:05:22.373Z,19.50
2019-03-01T10:07:50.641Z,19.50
2019-03-01T10:10:20.921Z,19.50
2019-03-01T10:12:49.190Z,19.50
2019-03-01T10:15:17.453Z,19.50
2019-03-01T10:17:45.771Z,19.50
2019-03-01T10:20:14.830Z,19.50
2019-03-01T10:22:43.330Z,19.50
2019-03-01T10:25:18.954Z,19.50
2019-03-01T10:27:47.469Z,19.50
2019-03-01T10:30:25.242Z,19.50
2019-03-01T10:32:53.510Z,19.50
2019-03-01T10:35:21.756Z,19.50
2019-03-01T10:37:50.096Z,19.50
2019-03-01T10:40:23.138Z,19.50
2019-03-01T10:42:51.392Z,19.50
2019-03-01T10:45:28.089Z,19.50
2019-03-01T10:47:56.349Z,19.50
2019-03-01T10:50:24.632Z,19.50
2019-03-01T10:52:53.120Z,19.50
2019-03-01T10:55:21.874Z,19.50
2019-03-01T10:57:50.115Z,19.60
2019-03-01T11:00:23.406Z,19.60
2019-03-01T11:02:51.673Z,19.50
2019-03-01T11:05:19.921Z,19.60
2019-03-01T11:07:49.365Z,19.60
2019-03-01T11:10:32.737Z,19.70
2019-03-01T11:13:01.245Z,19.80
2019-03-01T11:15:29.734Z,19.90
2019-03-01T11:17:58.011Z,20.00
2019-03-01T11:20:26.730Z,20.10
2019-03-01T11:22:54.986Z,20.20
2019-03-01T11:25:24.739Z,20.20
2019-03-01T11:27:53.090Z,20.30
2019-03-01T11:30:34.757Z,20.40
2019-03-01T11:33:03.026Z,20.50
2019-03-01T11:35:31.313Z,20.50
2019-03-01T11:37:59.591Z,20.60
2019-03-01T11:40:33.978Z,20.60
2019-03-01T11:43:02.248Z,20.70
2019-03-01T11:45:30.531Z,20.70
2019-03-01T11:47:58.868Z,20.80
2019-03-01T11:50:27.170Z,20.80
2019-03-01T11:52:55.442Z,20.80
2019-03-01T11:55:23.692Z,20.90
2019-03-01T11:57:51.962Z,20.90
2019-03-01T12:00:24.969Z,20.90
2019-03-01T12:02:53.256Z,21.00
2019-03-01T12:05:21.688Z,21.00
2019-03-01T12:07:50.197Z,21.00
2019-03-01T12:10:26.053Z,21.00
2019-03-01T12:12:54.563Z,21.00
2019-03-01T12:15:22.829Z,21.00
2019-03-01T12:17:51.093Z,21.10
2019-03-01T12:20:32.109Z,21.00
2019-03-01T12:23:00.366Z,21.10
2019-03-01T12:25:28.702Z,21.10
2019-03-01T12:27:56.961Z,21.00
2019-03-01T12:30:26.164Z,21.10
2019-03-01T12:32:54.429Z,21.10
2019-03-01T12:35:22.696Z,21.10
2019-03-01T12:37:50.986Z,21.10
2019-03-01T12:40:24.321Z,21.20
2019-03-01T12:42:52.594Z,21.20
2019-03-01T12:45:20.863Z,21.30
2019-03-01T12:47:49.241Z,21.30
2019-03-01T12:50:17.534Z,21.30
2019-03-01T12:52:45.784Z,21.30
2019-03-01T12:55:17.575Z,21.30
2019-03-01T12:57:45.837Z,21.30
2019-03-01T13:00:17.423Z,21.30
2019-03-01T13:02:45.664Z,21.60
2019-03-01T13:05:14.465Z,21.60
2019-03-01T13:07:42.832Z,21.60
2019-03-01T13:10:21.602Z,21.50
2019-03-01T13:12:49.977Z,21.50
2019-03-01T13:15:18.279Z,21.50
2019-03-01T13:17:46.562Z,21.50
2019-03-01T13:20:17.477Z,21.50
2019-03-01T13:22:45.789Z,22.20
2019-03-01T13:25:15.629Z,22.00
2019-03-01T13:27:44.087Z,22.00
2019-03-01T13:30:21.138Z,21.90
2019-03-01T13:32:49.393Z,21.80
2019-03-01T13:35:18.775Z,21.80
2019-03-01T13:37:47.042Z,21.80
2019-03-01T13:40:20.902Z,21.70
2019-03-01T13:42:50.725Z,21.70
2019-03-01T13:45:27.514Z,21.70
2019-03-01T13:47:55.781Z,21.70
2019-03-01T13:50:24.037Z,21.70
2019-03-01T13:52:52.537Z,21.70
2019-03-01T13:55:23.673Z,21.70
2019-03-01T13:57:51.600Z,21.70
2019-03-01T14:00:23.036Z,21.70
2019-03-01T14:02:51.538Z,21.70
2019-03-01T14:05:19.828Z,21.70
2019-03-01T14:07:48.710Z,21.70
2019-03-01T14:10:21.629Z,21.80
2019-03-01T14:12:50.138Z,21.80
2019-03-01T14:15:18.385Z,21.80
2019-03-01T14:17:46.672Z,21.80
2019-03-01T14:20:20.566Z,21.80
2019-03-01T14:22:49.319Z,21.80
2019-03-01T14:25:18.075Z,21.80
2019-03-01T14:27:46.447Z,21.80
2019-03-01T14:30:17.343Z,21.80
2019-03-01T14:32:45.636Z,21.80
2019-03-01T14:35:13.878Z,21.80
2019-03-01T14:37:42.394Z,21.90
2019-03-01T14:40:13.362Z,21.90
2019-03-01T14:42:46.481Z,21.90
2019-03-01T14:45:25.423Z,21.90
2019-03-01T14:47:53.365Z,21.90
2019-03-01T14:50:24.252Z,21.90
2019-03-01T14:52:56.597Z,21.90
2019-03-01T14:55:40.882Z,21.90
2019-03-01T14:58:27.013Z,21.90
2019-03-01T15:01:13.773Z,21.90
2019-03-01T15:03:42.097Z,22.00
2019-03-01T15:06:10.376Z,22.00
2019-03-01T15:08:40.528Z,22.00
2019-03-01T15:11:11.124Z,22.00
2019-03-01T15:13:39.485Z,22.00
2019-03-01T15:16:08.115Z,22.00
2019-03-01T15:18:37.525Z,22.00
2019-03-01T15:21:06.898Z,22.10
2019-03-01T15:23:35.181Z,22.10
2019-03-01T15:26:03.826Z,22.10
2019-03-01T15:28:32.150Z,22.10
2019-03-01T15:31:00.491Z,22.10
2019-03-01T15:33:28.780Z,22.10
2019-03-01T15:35:57.088Z,22.10
2019-03-01T15:38:27.672Z,22.10
2019-03-01T15:40:55.444Z,22.20
2019-03-01T15:43:26.470Z,22.20
2019-03-01T15:45:54.171Z,22.20
2019-03-01T15:48:22.448Z,22.30
2019-03-01T15:50:50.714Z,22.30
2019-03-01T15:53:21.603Z,22.30
2019-03-01T15:55:49.144Z,22.30
2019-03-01T15:58:17.477Z,22.30
2019-03-01T16:00:45.753Z,22.40
2019-03-01T16:03:14.110Z,22.40
2019-03-01T16:05:42.367Z,22.40
2019-03-01T16:08:10.693Z,22.40
2019-03-01T16:10:38.995Z,22.40
2019-03-01T16:13:08.464Z,22.40
2019-03-01T16:15:38.759Z,22.40
2019-03-01T16:18:07.315Z,22.40
2019-03-01T16:20:35.693Z,22.40
2019-03-01T16:23:03.945Z,22.50
2019-03-01T16:25:32.210Z,22.50
2019-03-01T16:28:00.746Z,22.50
2019-03-01T16:30:29.023Z,22.50
2019-03-01T16:32:57.505Z,22.50
2019-03-01T16:35:25.773Z,22.50
2019-03-01T16:38:01.590Z,22.50
2019-03-01T16:40:28.906Z,22.50
2019-03-01T16:42:57.157Z,22.50
2019-03-01T16:45:25.534Z,22.50
2019-03-01T16:47:53.797Z,22.50
2019-03-01T16:50:22.073Z,22.50
2019-03-01T16:52:50.313Z,22.50
2019-03-01T16:55:24.329Z,22.50
2019-03-01T16:57:53.648Z,22.50
2019-03-01T17:00:24.224Z,22.50
2019-03-01T17:03:01.952Z,22.40
2019-03-01T17:05:30.577Z,22.40
2019-03-01T17:07:59.691Z,22.40
2019-03-01T17:10:30.094Z,22.40
2019-03-01T17:12:58.885Z,22.40
2019-03-01T17:15:27.465Z,22.40
2019-03-01T17:17:55.714Z,22.40
2019-03-01T17:20:23.962Z,22.40
2019-03-01T17:22:52.224Z,22.40
2019-03-01T17:25:23.372Z,22.40
2019-03-01T17:27:50.734Z,22.40
2019-03-01T17:30:23.637Z,22.40
2019-03-01T17:32:51.913Z,22.40
2019-03-01T17:35:20.163Z,22.40
2019-03-01T17:37:48.441Z,22.40
2019-03-01T17:40:19.929Z,22.40
2019-03-01T17:42:48.187Z,22.40
2019-03-01T17:45:22.189Z,22.40
2019-03-01T17:47:50.659Z,22.40
2019-03-01T17:50:18.985Z,22.40
2019-03-01T17:52:47.244Z,22.30
2019-03-01T17:55:17.500Z,22.40
2019-03-01T17:57:45.937Z,22.30
2019-03-01T18:00:32.705Z,22.30
2019-03-01T18:03:00.964Z,22.30
2019-03-01T18:05:29.209Z,22.20
2019-03-01T18:07:59.902Z,22.20
2019-03-01T18:10:28.706Z,22.20
2019-03-01T18:12:57.712Z,22.20
2019-03-01T18:15:26.201Z,22.10
2019-03-01T18:17:54.913Z,22.10
2019-03-01T18:20:23.435Z,22.10
2019-03-01T18:22:51.697Z,22.00
2019-03-01T18:25:22.773Z,22.00
2019-03-01T18:27:52.919Z,22.00
2019-03-01T18:30:22.622Z,22.00
2019-03-01T18:32:51.154Z,21.90
2019-03-01T18:35:19.469Z,21.80
2019-03-01T18:37:51.551Z,21.70
2019-03-01T18:40:17.969Z,21.70
2019-03-01T18:42:46.473Z,21.70
2019-03-01T18:45:23.201Z,21.60
2019-03-01T18:47:51.469Z,21.60
2019-03-01T18:50:33.101Z,21.60
2019-03-01T18:53:03.713Z,21.50
2019-03-01T18:55:32.345Z,21.50
2019-03-01T18:58:00.614Z,21.40
2019-03-01T19:00:35.768Z,21.50
2019-03-01T19:03:05.354Z,21.40
2019-03-01T19:05:36.615Z,21.40
2019-03-01T19:08:04.780Z,21.40
2019-03-01T19:10:33.753Z,21.30
2019-03-01T19:13:02.016Z,21.30
2019-03-01T19:15:30.565Z,21.30
2019-03-01T19:17:58.845Z,21.30
2019-03-01T19:20:37.995Z,21.30
2019-03-01T19:23:04.960Z,21.20
2019-03-01T19:25:33.297Z,21.20
2019-03-01T19:28:01.569Z,21.10
2019-03-01T19:30:29.804Z,21.10
2019-03-01T19:32:59.044Z,21.00
2019-03-01T19:35:29.540Z,21.10
2019-03-01T19:37:58.087Z,21.00
2019-03-01T19:40:26.358Z,21.00
2019-03-01T19:42:54.673Z,21.00
2019-03-01T19:45:22.962Z,20.90
2019-03-01T19:47:51.493Z,20.90
2019-03-01T19:50:26.159Z,20.90
2019-03-01T19:52:54.415Z,20.90
2019-03-01T19:55:22.685Z,20.90
2019-03-01T19:57:51.215Z,20.80
2019-03-01T20:00:22.449Z,20.80
2019-03-01T20:02:50.769Z,20.70
2019-03-01T20:05:21.472Z,20.70
2019-03-01T20:07:51.812Z,20.70
2019-03-01T20:10:19.792Z,20.70
2019-03-01T20:12:48.133Z,20.70
2019-03-01T20:15:24.481Z,20.70
2019-03-01T20:17:53.144Z,20.70
2019-03-01T20:20:24.923Z,20.60
2019-03-01T20:22:54.186Z,20.60
2019-03-01T20:25:23.264Z,20.60
2019-03-01T20:27:51.528Z,20.60
2019-03-01T20:30:30.211Z,20.60
2019-03-01T20:32:56.891Z,20.60
2019-03-01T20:35:26.091Z,20.60
2019-03-01T20:37:55.229Z,20.50
2019-03-01T20:40:26.691Z,20.50
2019-03-01T20:42:56.018Z,20.50
2019-03-01T20:45:31.463Z,20.50
2019-03-01T20:48:00.111Z,20.50
2019-03-01T20:50:28.382Z,20.50
2019-03-01T20:52:56.697Z,20.50
2019-03-01T20:55:24.937Z,20.50
2019-03-01T20:57:53.197Z,20.50
2019-03-01T21:00:27.335Z,20.40
2019-03-01T21:02:56.590Z,20.40
2019-03-01T21:05:28.728Z,20.40
2019-03-01T21:07:54.946Z,20.40
2019-03-01T21:10:28.075Z,20.40
2019-03-01T21:12:56.320Z,20.40
2019-03-01T21:15:24.594Z,20.40
2019-03-01T21:17:56.518Z,20.40
2019-03-01T21:20:22.828Z,20.40
2019-03-01T21:22:51.092Z,20.30
2019-03-01T21:25:25.495Z,20.30
2019-03-01T21:27:53.765Z,20.30
2019-03-01T21:30:24.957Z,20.30
2019-03-01T21:32:53.255Z,20.30
2019-03-01T21:35:21.865Z,20.30
2019-03-01T21:37:50.680Z,20.30
2019-03-01T21:40:19.169Z,20.30
2019-03-01T21:42:47.504Z,20.20
2019-03-01T21:45:21.605Z,20.20
2019-03-01T21:47:48.192Z,20.20
2019-03-01T21:50:17.532Z,20.20
2019-03-01T21:52:45.861Z,20.20
2019-03-01T21:55:18.845Z,20.20
2019-03-01T21:57:47.368Z,20.20
2019-03-01T22:00:20.685Z,20.10
2019-03-01T22:02:52.894Z,20.10
2019-03-01T22:05:18.914Z,20.10
2019-03-01T22:07:47.243Z,20.10
2019-03-01T22:10:15.661Z,20.10
2019-03-01T22:12:43.906Z,20.10
2019-03-01T22:15:21.544Z,20.10
2019-03-01T22:17:51.534Z,20.10
2019-03-01T22:20:20.234Z,20.10
2019-03-01T22:22:48.545Z,20.10
2019-03-01T22:25:16.804Z,20.00
2019-03-01T22:27:45.073Z,20.00
2019-03-01T22:30:19.703Z,20.00
2019-03-01T22:32:49.357Z,20.10
2019-03-01T22:35:17.670Z,20.00
2019-03-01T22:37:46.960Z,20.00
2019-03-01T22:40:15.366Z,20.00
2019-03-01T22:42:45.806Z,20.00
2019-03-01T22:45:17.787Z,20.00
2019-03-01T22:47:46.050Z,19.90
2019-03-01T22:50:16.505Z,19.90
2019-03-01T22:52:44.750Z,19.90
2019-03-01T22:55:17.515Z,19.90
2019-03-01T22:57:45.781Z,19.90
2019-03-01T23:00:27.464Z,19.90
2019-03-01T23:02:55.985Z,19.90
2019-03-01T23:05:24.517Z,19.90
2019-03-01T23:07:52.793Z,19.90
2019-03-01T23:10:21.493Z,19.80
2019-03-01T23:12:50.617Z,19.90
2019-03-01T23:15:19.109Z,19.80
2019-03-01T23:17:47.613Z,19.80
2019-03-01T23:20:15.870Z,19.80
2019-03-01T23:22:46.013Z,19.80
2019-03-01T23:25:14.097Z,19.80
2019-03-01T23:27:42.373Z,19.80
2019-03-01T23:30:10.649Z,19.80
2019-03-01T23:32:38.897Z,19.80
2019-03-01T23:35:07.162Z,19.80
2019-03-01T23:37:35.579Z,19.80
2019-03-01T23:40:06.225Z,19.80
2019-03-01T23:42:34.741Z,19.80
2019-03-01T23:45:03.138Z,19.80
2019-03-01T23:47:31.401Z,19.70
2019-03-01T23:50:00.591Z,19.70
2019-03-01T23:52:29.290Z,19.70
2019-03-01T23:54:57.531Z,19.70
2019-03-01T23:57:25.798Z,19.70
2019-03-01T23:59:54.105Z,19.70
